createdAt,value
2017-06-27T00:00:46.630Z,82.93
2017-06-27T00:03:16.977Z,82.98
2017-06-27T00:05:47.563Z,82.79
2017-06-27T00:08:18.813Z,83.16
2017-06-27T00:10:49.074Z,83.47
2017-06-27T00:13:18.870Z,83.88
2017-06-27T00:15:48.642Z,83.67
2017-06-27T00:18:19.232Z,83.78
2017-06-27T00:20:49.089Z,83.58
2017-06-27T00:23:19.173Z,83.83
2017-06-27T00:25:51.057Z,83.94
2017-06-27T00:28:20.572Z,84.49
2017-06-27T00:30:50.355Z,83.83
2017-06-27T00:33:20.127Z,82.63
2017-06-27T00:35:49.897Z,82.90
2017-06-27T00:38:19.671Z,83.21
2017-06-27T00:40:49.432Z,82.54
2017-06-27T00:43:19.226Z,82.55
2017-06-27T00:45:49.213Z,82.20
2017-06-27T00:48:18.957Z,81.52
2017-06-27T00:50:48.737Z,81.78
2017-06-27T00:53:19.208Z,81.86
2017-06-27T00:55:49.161Z,81.88
2017-06-27T00:58:18.958Z,81.75
2017-06-27T01:00:48.746Z,81.56
2017-06-27T01:03:19.129Z,81.81
2017-06-27T01:05:48.913Z,80.99
2017-06-27T01:08:18.867Z,81.30
2017-06-27T01:10:49.401Z,81.49
2017-06-27T01:13:19.245Z,81.08
2017-06-27T01:15:48.972Z,79.60
2017-06-27T01:18:18.678Z,80.82
2017-06-27T01:20:49.149Z,80.07
2017-06-27T01:23:18.940Z,81.01
2017-06-27T01:25:49.301Z,79.99
2017-06-27T01:28:19.647Z,79.93
2017-06-27T01:30:50.209Z,80.10
2017-06-27T01:33:20.463Z,80.71
2017-06-27T01:35:50.133Z,80.61
2017-06-27T01:38:20.865Z,79.76
2017-06-27T01:40:50.538Z,79.58
2017-06-27T01:43:20.905Z,79.59
2017-06-27T01:45:50.655Z,79.63
2017-06-27T01:48:21.249Z,80.91
2017-06-27T01:50:51.520Z,80.72
2017-06-27T01:53:21.277Z,80.40
2017-06-27T01:55:50.758Z,80.54
2017-06-27T01:58:20.458Z,80.92
2017-06-27T02:00:50.240Z,81.49
2017-06-27T02:03:20.002Z,81.21
2017-06-27T02:05:49.818Z,80.66
2017-06-27T02:08:19.533Z,80.65
2017-06-27T02:10:49.838Z,80.61
2017-06-27T02:13:19.581Z,79.48
2017-06-27T02:15:49.371Z,79.07
2017-06-27T02:18:19.110Z,80.12
2017-06-27T02:20:48.927Z,79.83
2017-06-27T02:23:18.737Z,80.16
2017-06-27T02:25:49.042Z,80.58
2017-06-27T02:28:18.782Z,80.61
2017-06-27T02:30:51.776Z,80.14
2017-06-27T02:33:21.462Z,80.07
2017-06-27T02:35:51.172Z,80.37
2017-06-27T02:38:20.938Z,80.66
2017-06-27T02:40:51.101Z,80.54
2017-06-27T02:43:20.861Z,80.40
2017-06-27T02:45:50.530Z,80.08
2017-06-27T02:48:20.258Z,80.20
2017-06-27T02:50:49.982Z,79.98
2017-06-27T02:53:19.681Z,79.61
2017-06-27T02:55:49.390Z,79.56
2017-06-27T02:58:19.130Z,79.44
2017-06-27T03:00:48.922Z,79.77
2017-06-27T03:03:18.665Z,78.83
2017-06-27T03:05:48.378Z,79.03
2017-06-27T03:08:18.248Z,78.74
2017-06-27T03:10:47.978Z,78.09
2017-06-27T03:13:17.726Z,77.09
2017-06-27T03:15:47.621Z,76.79
2017-06-27T03:18:17.426Z,77.28
2017-06-27T03:20:47.243Z,77.06
2017-06-27T03:23:16.941Z,76.50
2017-06-27T03:25:47.253Z,75.51
2017-06-27T03:28:17.021Z,76.24
2017-06-27T03:30:46.891Z,75.89
2017-06-27T03:33:16.670Z,75.77
2017-06-27T03:35:46.463Z,75.66
2017-06-27T03:38:18.648Z,75.87
2017-06-27T03:40:48.532Z,76.59
2017-06-27T03:43:18.237Z,76.02
2017-06-27T03:45:48.097Z,74.93
2017-06-27T03:48:17.905Z,75.02
2017-06-27T03:50:49.287Z,74.29
2017-06-27T03:53:19.921Z,72.70
2017-06-27T03:55:50.674Z,72.28
2017-06-27T03:58:20.415Z,73.86
2017-06-27T04:00:50.148Z,74.01
2017-06-27T04:03:19.952Z,74.77
2017-06-27T04:05:49.654Z,73.77
2017-06-27T04:08:19.577Z,73.83
2017-06-27T04:10:49.514Z,73.96
2017-06-27T04:13:19.206Z,73.72
2017-06-27T04:15:54.104Z,73.32
2017-06-27T04:18:23.777Z,73.93
2017-06-27T04:20:53.501Z,73.02
2017-06-27T04:23:23.160Z,73.12
2017-06-27T04:25:52.885Z,72.65
2017-06-27T04:28:22.646Z,73.73
2017-06-27T04:30:53.121Z,73.52
2017-06-27T04:33:23.971Z,74.61
2017-06-27T04:35:53.705Z,73.93
2017-06-27T04:38:23.381Z,74.09
2017-06-27T04:40:53.165Z,73.02
2017-06-27T04:43:22.926Z,72.55
2017-06-27T04:45:52.646Z,71.12
2017-06-27T04:48:22.383Z,71.25
2017-06-27T04:50:52.062Z,71.12
2017-06-27T04:53:21.805Z,70.68
2017-06-27T04:55:51.524Z,71.52
2017-06-27T04:58:21.416Z,70.92
2017-06-27T05:00:51.692Z,70.76
2017-06-27T05:03:22.209Z,71.47
2017-06-27T05:05:52.029Z,72.61
2017-06-27T05:08:21.805Z,72.90
2017-06-27T05:10:52.441Z,73.74
2017-06-27T05:13:22.171Z,72.77
2017-06-27T05:15:51.865Z,73.49
2017-06-27T05:18:24.658Z,73.53
2017-06-27T05:20:54.330Z,72.76
2017-06-27T05:23:24.831Z,72.33
2017-06-27T05:25:54.607Z,70.48
2017-06-27T05:28:24.353Z,70.12
2017-06-27T05:30:54.066Z,70.04
2017-06-27T05:33:23.779Z,70.12
2017-06-27T05:35:53.643Z,69.93
2017-06-27T05:38:23.893Z,69.53
2017-06-27T05:40:53.608Z,69.02
2017-06-27T05:43:23.834Z,69.42
2017-06-27T05:45:54.136Z,68.61
2017-06-27T05:48:23.937Z,68.30
2017-06-27T05:50:54.171Z,67.97
2017-06-27T05:53:23.911Z,69.18
2017-06-27T05:55:53.678Z,68.46
2017-06-27T05:58:23.461Z,67.95
2017-06-27T06:00:53.186Z,69.28
2017-06-27T06:03:22.857Z,68.15
2017-06-27T06:05:52.554Z,69.31
2017-06-27T06:08:22.334Z,69.54
2017-06-27T06:10:52.118Z,69.95
2017-06-27T06:13:21.685Z,69.68
2017-06-27T06:15:51.352Z,69.53
2017-06-27T06:18:21.033Z,69.12
2017-06-27T06:20:50.791Z,70.07
2017-06-27T06:23:20.589Z,68.95
2017-06-27T06:25:50.364Z,69.54
2017-06-27T06:28:20.129Z,69.06
2017-06-27T06:30:49.910Z,68.67
2017-06-27T06:33:19.674Z,68.85
2017-06-27T06:35:49.977Z,69.40
2017-06-27T06:38:20.314Z,69.60
2017-06-27T06:40:50.181Z,68.30
2017-06-27T06:43:19.910Z,68.06
2017-06-27T06:45:49.658Z,68.69
2017-06-27T06:48:19.130Z,67.70
2017-06-27T06:50:48.885Z,67.50
2017-06-27T06:53:18.564Z,65.20
2017-06-27T06:55:48.297Z,64.96
2017-06-27T06:58:18.017Z,64.82
2017-06-27T07:00:47.701Z,64.06
2017-06-27T07:03:17.466Z,62.06
2017-06-27T07:05:47.266Z,62.13
2017-06-27T07:08:16.966Z,60.73
2017-06-27T07:10:46.693Z,60.39
2017-06-27T07:13:16.489Z,59.88
2017-06-27T07:15:46.242Z,60.73
2017-06-27T07:18:16.025Z,61.30
2017-06-27T07:20:45.744Z,59.50
2017-06-27T07:23:22.879Z,60.38
2017-06-27T07:25:52.557Z,59.82
2017-06-27T07:28:22.277Z,60.22
2017-06-27T07:30:52.875Z,59.89
2017-06-27T07:33:22.721Z,59.22
2017-06-27T07:35:52.398Z,59.16
2017-06-27T07:38:22.125Z,57.86
2017-06-27T07:40:51.860Z,58.78
2017-06-27T07:43:21.629Z,58.57
2017-06-27T07:45:51.363Z,57.71
2017-06-27T07:48:21.211Z,57.43
2017-06-27T07:50:50.877Z,57.91
2017-06-27T07:53:20.633Z,56.90
2017-06-27T07:55:50.398Z,56.91
2017-06-27T07:58:20.754Z,58.42
2017-06-27T08:00:50.461Z,56.87
2017-06-27T08:03:20.140Z,57.80
2017-06-27T08:05:49.835Z,56.78
2017-06-27T08:08:20.285Z,56.13
2017-06-27T08:10:50.082Z,56.24
2017-06-27T08:13:19.845Z,55.91
2017-06-27T08:15:49.541Z,55.96
2017-06-27T08:18:19.281Z,55.54
2017-06-27T08:20:49.054Z,56.27
2017-06-27T08:23:18.858Z,56.46
2017-06-27T08:25:48.517Z,55.47
2017-06-27T08:28:18.427Z,54.83
2017-06-27T08:30:48.215Z,55.76
2017-06-27T08:33:18.519Z,55.88
2017-06-27T08:35:48.346Z,56.17
2017-06-27T08:38:18.017Z,56.32
2017-06-27T08:40:47.821Z,55.81
2017-06-27T08:43:17.541Z,56.14
2017-06-27T08:45:47.254Z,57.34
2017-06-27T08:48:17.015Z,56.15
2017-06-27T08:50:47.458Z,57.50
2017-06-27T08:53:17.189Z,57.31
2017-06-27T08:55:46.950Z,56.99
2017-06-27T08:58:16.761Z,56.65
2017-06-27T09:00:46.614Z,55.46
2017-06-27T09:03:16.361Z,56.92
2017-06-27T09:05:46.065Z,57.28
2017-06-27T09:08:15.819Z,55.82
2017-06-27T09:10:45.534Z,57.00
2017-06-27T09:13:15.382Z,56.89
2017-06-27T09:15:45.158Z,56.69
2017-06-27T09:18:14.969Z,55.90
2017-06-27T09:20:44.818Z,56.65
2017-06-27T09:23:14.497Z,57.65
2017-06-27T09:25:44.270Z,57.14
2017-06-27T09:28:14.915Z,57.36
2017-06-27T09:30:44.594Z,56.96
2017-06-27T09:33:14.358Z,56.83
2017-06-27T09:35:44.069Z,56.88
2017-06-27T09:38:13.821Z,57.17
2017-06-27T09:40:43.495Z,57.20
2017-06-27T09:43:13.802Z,56.82
2017-06-27T09:45:43.562Z,57.53
2017-06-27T09:48:13.292Z,57.35
2017-06-27T09:50:43.066Z,56.93
2017-06-27T09:53:12.743Z,56.53
2017-06-27T09:55:43.787Z,57.17
2017-06-27T09:58:13.465Z,57.37
2017-06-27T10:00:43.297Z,57.37
2017-06-27T10:03:13.731Z,57.06
2017-06-27T10:05:43.367Z,56.32
2017-06-27T10:08:13.123Z,57.15
2017-06-27T10:10:42.923Z,57.56
2017-06-27T10:13:12.682Z,57.60
2017-06-27T10:15:42.446Z,56.05
2017-06-27T10:18:13.046Z,57.65
2017-06-27T10:20:42.725Z,56.51
2017-06-27T10:23:12.389Z,56.42
2017-06-27T10:25:42.173Z,56.43
2017-06-27T10:28:12.584Z,56.38
2017-06-27T10:30:42.415Z,56.76
2017-06-27T10:33:13.152Z,56.79
2017-06-27T10:35:43.027Z,58.02
2017-06-27T10:38:12.714Z,57.72
2017-06-27T10:40:42.448Z,57.46
2017-06-27T10:43:12.150Z,58.33
2017-06-27T10:45:41.879Z,57.96
2017-06-27T10:48:12.414Z,57.22
2017-06-27T10:50:42.133Z,56.61
2017-06-27T10:53:11.854Z,56.11
2017-06-27T10:55:41.572Z,56.64
2017-06-27T10:58:11.368Z,57.22
2017-06-27T11:00:41.189Z,57.03
2017-06-27T11:03:10.894Z,56.24
2017-06-27T11:05:40.626Z,57.39
2017-06-27T11:08:10.360Z,57.87
2017-06-27T11:10:40.040Z,58.37
2017-06-27T11:13:17.163Z,57.13
2017-06-27T11:15:49.997Z,56.16
2017-06-27T11:18:19.765Z,56.95
2017-06-27T11:20:49.450Z,57.24
2017-06-27T11:23:19.197Z,57.05
2017-06-27T11:25:48.954Z,56.60
2017-06-27T11:28:18.694Z,56.79
2017-06-27T11:30:48.434Z,57.25
2017-06-27T11:33:18.207Z,56.59
2017-06-27T11:35:47.958Z,56.46
2017-06-27T11:38:17.734Z,55.52
2017-06-27T11:40:47.435Z,56.10
2017-06-27T11:43:17.266Z,56.44
2017-06-27T11:45:46.961Z,54.95
2017-06-27T11:48:16.724Z,55.14
2017-06-27T11:50:46.521Z,56.13
2017-06-27T11:53:16.219Z,57.12
2017-06-27T11:55:46.070Z,55.43
2017-06-27T11:58:15.742Z,56.07
2017-06-27T12:01:07.442Z,55.70
2017-06-27T12:03:59.338Z,56.28
2017-06-27T12:06:40.036Z,56.69
2017-06-27T12:09:21.365Z,56.54
2017-06-27T12:11:51.089Z,56.19
2017-06-27T12:14:21.392Z,55.68
2017-06-27T12:16:51.260Z,55.65
2017-06-27T12:19:21.021Z,55.71
2017-06-27T12:21:50.817Z,55.79
2017-06-27T12:24:20.549Z,55.17
2017-06-27T12:26:50.830Z,55.20
2017-06-27T12:29:20.635Z,55.71
2017-06-27T12:31:51.077Z,55.32
2017-06-27T12:34:20.806Z,54.53
2017-06-27T12:36:50.488Z,54.92
2017-06-27T12:39:20.282Z,55.48
2017-06-27T12:41:50.050Z,56.04
2017-06-27T12:44:19.876Z,54.33
2017-06-27T12:46:49.630Z,53.31
2017-06-27T12:49:19.314Z,54.05
2017-06-27T12:51:49.054Z,52.93
2017-06-27T12:54:18.822Z,52.47
2017-06-27T12:56:48.753Z,52.70
2017-06-27T12:59:18.465Z,51.45
2017-06-27T13:01:48.245Z,52.33
2017-06-27T13:04:18.125Z,50.78
2017-06-27T13:06:47.894Z,52.33
2017-06-27T13:09:17.728Z,51.89
2017-06-27T13:11:47.921Z,52.71
2017-06-27T13:14:18.163Z,51.82
2017-06-27T13:16:47.624Z,51.79
2017-06-27T13:19:17.413Z,51.62
2017-06-27T13:21:47.140Z,51.21
2017-06-27T13:24:16.862Z,47.23
2017-06-27T13:26:46.632Z,50.40
2017-06-27T13:29:17.178Z,50.39
2017-06-27T13:31:46.879Z,49.44
2017-06-27T13:34:16.590Z,48.18
2017-06-27T13:36:46.911Z,47.63
2017-06-27T13:39:16.654Z,48.12
2017-06-27T13:41:46.002Z,47.41
2017-06-27T13:44:15.755Z,48.67
2017-06-27T13:46:46.238Z,49.07
2017-06-27T13:49:15.933Z,48.55
2017-06-27T13:51:46.669Z,48.46
2017-06-27T13:54:17.031Z,49.06
2017-06-27T13:56:47.577Z,48.90
2017-06-27T13:59:17.320Z,49.18
2017-06-27T14:01:48.063Z,48.69
2017-06-27T14:04:17.768Z,48.83
2017-06-27T14:06:47.677Z,47.55
2017-06-27T14:09:17.420Z,48.16
2017-06-27T14:11:47.239Z,46.46
2017-06-27T14:14:17.173Z,45.91
2017-06-27T14:16:51.970Z,47.24
2017-06-27T14:19:21.846Z,47.27
2017-06-27T14:21:52.274Z,47.31
2017-06-27T14:24:22.561Z,48.25
2017-06-27T14:26:52.465Z,48.51
2017-06-27T14:29:22.793Z,48.02
2017-06-27T14:31:52.510Z,47.38
2017-06-27T14:34:22.198Z,47.02
2017-06-27T14:36:51.904Z,47.84
2017-06-27T14:39:21.642Z,47.97
2017-06-27T14:41:51.343Z,48.03
2017-06-27T14:44:21.136Z,48.53
2017-06-27T14:46:50.893Z,48.26
2017-06-27T14:49:20.674Z,47.87
2017-06-27T14:51:50.401Z,48.11
2017-06-27T14:54:20.132Z,47.90
2017-06-27T14:56:50.609Z,48.20
2017-06-27T14:59:20.371Z,47.47
2017-06-27T15:01:50.146Z,47.21
2017-06-27T15:04:19.808Z,47.88
2017-06-27T15:06:49.497Z,46.58
2017-06-27T15:09:19.538Z,46.46
2017-06-27T15:11:50.309Z,46.88
2017-06-27T15:14:21.317Z,46.83
2017-06-27T15:16:51.542Z,46.73
2017-06-27T15:19:22.393Z,47.48
2017-06-27T15:21:52.695Z,45.66
2017-06-27T15:24:23.525Z,47.01
2017-06-27T15:26:53.979Z,47.05
2017-06-27T15:29:25.731Z,46.92
2017-06-27T15:31:58.463Z,46.19
2017-06-27T15:34:31.274Z,46.93
2017-06-27T15:37:01.581Z,47.22
2017-06-27T15:39:31.910Z,48.80
2017-06-27T15:42:01.858Z,49.75
2017-06-27T15:44:33.494Z,49.53
2017-06-27T15:47:04.085Z,50.53
2017-06-27T15:49:33.896Z,50.32
2017-06-27T15:52:03.577Z,49.47
2017-06-27T15:54:33.322Z,50.58
2017-06-27T15:57:03.068Z,50.63
2017-06-27T15:59:32.842Z,50.06
2017-06-27T16:02:02.688Z,51.13
2017-06-27T16:04:32.472Z,51.23
2017-06-27T16:07:02.141Z,51.75
2017-06-27T16:09:31.927Z,51.45
2017-06-27T16:12:01.710Z,51.92
2017-06-27T16:14:31.561Z,51.93
2017-06-27T16:17:01.334Z,52.74
2017-06-27T16:19:31.174Z,52.43
2017-06-27T16:22:00.882Z,52.62
2017-06-27T16:24:30.615Z,53.10
2017-06-27T16:27:00.642Z,52.53
2017-06-27T16:29:30.319Z,52.68
2017-06-27T16:32:00.062Z,52.66
2017-06-27T16:34:29.870Z,52.54
2017-06-27T16:36:59.554Z,52.54
2017-06-27T16:39:29.317Z,52.74
2017-06-27T16:41:59.125Z,52.58
2017-06-27T16:44:30.405Z,52.31
2017-06-27T16:47:02.085Z,52.58
2017-06-27T16:49:34.329Z,51.97
2017-06-27T16:52:05.933Z,51.68
2017-06-27T16:54:37.769Z,51.29
2017-06-27T16:57:08.872Z,52.16
2017-06-27T16:59:40.613Z,52.82
2017-06-27T17:02:11.155Z,51.63
2017-06-27T17:04:46.055Z,52.29
2017-06-27T17:07:17.122Z,52.61
2017-06-27T17:09:47.322Z,52.48
2017-06-27T17:12:17.498Z,52.87
2017-06-27T17:14:47.257Z,53.04
2017-06-27T17:17:17.749Z,53.21
2017-06-27T17:19:47.777Z,52.64
2017-06-27T17:22:18.365Z,52.84
2017-06-27T17:24:48.893Z,52.74
2017-06-27T17:27:21.629Z,52.79
2017-06-27T17:29:53.160Z,52.89
2017-06-27T17:32:24.972Z,52.39
2017-06-27T17:34:56.133Z,52.77
2017-06-27T17:37:26.876Z,52.42
2017-06-27T17:39:57.634Z,52.82
2017-06-27T17:42:29.733Z,52.20
2017-06-27T17:45:06.589Z,51.62
2017-06-27T17:47:43.527Z,52.20
2017-06-27T17:50:17.673Z,52.90
2017-06-27T17:52:49.101Z,53.41
2017-06-27T17:57:57.399Z,52.34
2017-06-27T18:00:29.092Z,52.71
2017-06-27T18:03:01.383Z,53.65
2017-06-27T18:05:33.920Z,53.08
2017-06-27T18:08:06.053Z,53.27
2017-06-27T18:10:38.447Z,54.24
2017-06-27T18:13:10.964Z,54.70
2017-06-27T18:15:43.730Z,55.07
2017-06-27T18:18:16.502Z,55.30
2017-06-27T18:20:49.523Z,55.69
2017-06-27T18:23:22.441Z,56.76
2017-06-27T18:25:54.490Z,57.30
2017-06-27T18:28:27.561Z,58.29
2017-06-27T18:31:00.184Z,58.58
2017-06-27T18:33:33.872Z,58.13
2017-06-27T18:36:06.142Z,60.45
2017-06-27T18:38:40.328Z,60.02
2017-06-27T18:41:12.076Z,62.04
2017-06-27T18:43:45.821Z,63.87
2017-06-27T18:46:18.049Z,64.12
2017-06-27T18:48:50.406Z,65.50
2017-06-27T18:51:22.820Z,66.52
2017-06-27T18:53:54.857Z,66.30
2017-06-27T18:56:26.988Z,66.42
2017-06-27T18:58:59.439Z,67.15
2017-06-27T19:01:33.412Z,67.56
2017-06-27T19:04:06.263Z,68.28
2017-06-27T19:06:39.230Z,66.80
2017-06-27T19:09:11.881Z,67.09
2017-06-27T19:11:44.150Z,67.50
2017-06-27T19:14:16.567Z,68.83
2017-06-27T19:16:47.390Z,67.88
2017-06-27T19:19:19.393Z,68.78
2017-06-27T19:21:51.037Z,66.87
2017-06-27T19:24:22.442Z,68.89
2017-06-27T19:26:52.994Z,69.13
2017-06-27T19:29:24.081Z,69.60
2017-06-27T19:31:55.376Z,70.06
2017-06-27T19:34:27.973Z,70.70
2017-06-27T19:37:00.255Z,70.20
2017-06-27T19:39:32.858Z,70.30
2017-06-27T19:42:04.952Z,71.05
2017-06-27T19:44:37.075Z,72.73
2017-06-27T19:47:10.737Z,72.69
2017-06-27T19:49:43.480Z,73.25
2017-06-27T19:52:16.837Z,74.21
2017-06-27T19:54:48.325Z,74.54
2017-06-27T19:57:21.170Z,74.77
2017-06-27T19:59:55.534Z,75.27
2017-06-27T20:02:25.927Z,75.52
2017-06-27T20:04:55.620Z,75.59
2017-06-27T20:07:25.393Z,75.68
2017-06-27T20:09:54.805Z,75.29
2017-06-27T20:12:25.012Z,75.02
2017-06-27T20:14:54.832Z,76.19
2017-06-27T20:17:25.142Z,76.11
2017-06-27T20:19:54.850Z,75.44
2017-06-27T20:22:24.551Z,75.91
2017-06-27T20:24:54.481Z,76.04
2017-06-27T20:27:24.173Z,76.89
2017-06-27T20:29:53.934Z,77.40
2017-06-27T20:32:23.931Z,76.97
2017-06-27T20:34:53.846Z,76.88
2017-06-27T20:37:23.767Z,76.16
2017-06-27T20:39:53.684Z,76.31
2017-06-27T20:42:23.410Z,75.15
2017-06-27T20:44:53.081Z,75.69
2017-06-27T20:47:22.983Z,75.32
2017-06-27T20:49:53.561Z,73.82
2017-06-27T20:52:23.273Z,75.10
2017-06-27T20:54:53.034Z,75.26
2017-06-27T20:57:23.529Z,73.24
2017-06-27T20:59:55.172Z,74.52
2017-06-27T21:02:24.844Z,72.95
2017-06-27T21:04:54.706Z,73.04
2017-06-27T21:07:24.450Z,73.43
2017-06-27T21:09:54.458Z,73.50
2017-06-27T21:12:24.277Z,72.80
2017-06-27T21:14:54.063Z,73.50
2017-06-27T21:17:24.094Z,73.35
2017-06-27T21:19:53.783Z,74.72
2017-06-27T21:22:23.726Z,75.47
2017-06-27T21:24:53.442Z,75.40
2017-06-27T21:27:23.139Z,75.34
2017-06-27T21:29:52.710Z,76.76
2017-06-27T21:32:22.457Z,77.15
2017-06-27T21:34:52.397Z,77.20
2017-06-27T21:37:22.822Z,77.91
2017-06-27T21:39:52.547Z,77.76
2017-06-27T21:42:21.932Z,77.65
2017-06-27T21:44:51.856Z,78.22
2017-06-27T21:47:21.517Z,78.73
2017-06-27T21:49:51.974Z,79.37
2017-06-27T21:52:21.730Z,79.59
2017-06-27T21:54:51.589Z,79.29
2017-06-27T21:57:21.321Z,78.91
2017-06-27T21:59:51.110Z,79.00
2017-06-27T22:02:26.676Z,79.49
2017-06-27T22:04:59.454Z,79.92
2017-06-27T22:07:29.192Z,80.30
2017-06-27T22:09:59.529Z,80.62
2017-06-27T22:12:29.910Z,80.64
2017-06-27T22:14:59.689Z,80.69
2017-06-27T22:17:29.404Z,80.57
2017-06-27T22:19:59.127Z,80.17
2017-06-27T22:22:28.977Z,79.91
2017-06-27T22:24:58.737Z,79.87
2017-06-27T22:27:28.431Z,79.46
2017-06-27T22:29:58.175Z,78.42
2017-06-27T22:32:27.873Z,78.31
2017-06-27T22:34:57.615Z,78.52
2017-06-27T22:37:27.291Z,79.39
2017-06-27T22:39:57.029Z,79.47
2017-06-27T22:42:26.913Z,78.00
2017-06-27T22:44:56.638Z,78.45
2017-06-27T22:47:26.398Z,77.64
2017-06-27T22:49:56.203Z,77.12
2017-06-27T22:52:25.993Z,77.82
2017-06-27T22:54:55.731Z,76.53
2017-06-27T22:57:25.542Z,76.48
2017-06-27T22:59:55.467Z,76.36
2017-06-27T23:02:25.172Z,75.95
2017-06-27T23:04:54.858Z,75.86
2017-06-27T23:07:24.630Z,76.54
2017-06-27T23:09:54.421Z,76.64
2017-06-27T23:12:24.262Z,75.75
2017-06-27T23:14:54.006Z,75.15
2017-06-27T23:17:23.770Z,75.68
2017-06-27T23:19:54.108Z,75.79
2017-06-27T23:22:24.649Z,75.09
2017-06-27T23:24:54.463Z,74.20
2017-06-27T23:27:24.251Z,73.73
2017-06-27T23:29:54.068Z,74.48
2017-06-27T23:32:24.360Z,75.28
2017-06-27T23:34:54.088Z,75.03
2017-06-27T23:37:23.870Z,75.64
2017-06-27T23:39:53.544Z,75.13
2017-06-27T23:42:23.326Z,74.06
2017-06-27T23:44:53.942Z,74.80
2017-06-27T23:47:23.670Z,73.73
2017-06-27T23:49:53.639Z,74.49
2017-06-27T23:52:23.435Z,74.81
2017-06-27T23:54:53.309Z,74.13
2017-06-27T23:57:23.626Z,73.07
2017-06-27T23:59:53.390Z,72.71
